Time;durP1;ratioP1;P1;durP2;ratioP2;P2;SDS_P1;SDS_P2;PMS_P1;PMS_P2;Temp;Humidity;BMP_temperature;BMP_pressure;BME280_temperature;BME280_humidity;BME280_pressure;Samples;Min_cycle;Max_cycle;Signal;HPM_P1;HPM_P2
2023/04/25 00:00:06;;;;;;;1999.90;999.90;;;11.10;99.90;;;;;;5053656;28;20028;-77
2023/04/25 00:02:34;;;;;;;1999.90;999.90;;;11.10;99.90;;;;;;5052773;28;20092;-77
2023/04/25 00:05:01;;;;;;;1999.90;999.90;;;11.20;99.90;;;;;;5053200;28;20025;-77
2023/04/25 00:07:27;;;;;;;1999.90;999.90;;;11.20;99.90;;;;;;5035321;28;20028;-70
2023/04/25 00:09:53;;;;;;;1999.90;999.90;;;11.20;99.90;;;;;;5035086;28;20029;-70
2023/04/25 00:12:18;;;;;;;1999.90;999.90;;;11.20;99.90;;;;;;5052980;28;20035;-77
2023/04/25 00:14:45;;;;;;;1999.90;999.90;;;11.20;99.90;;;;;;5052692;28;20425;-70
2023/04/25 00:17:11;;;;;;;1999.90;999.90;;;11.20;99.90;;;;;;5052879;28;20135;-70
2023/04/25 00:19:37;;;;;;;1999.90;999.90;;;11.20;99.90;;;;;;5052958;28;20108;-77
2023/04/25 00:22:03;;;;;;;1999.90;999.90;;;11.20;99.90;;;;;;5053071;28;20041;-77
2023/04/25 00:24:29;;;;;;;1999.90;999.90;;;11.20;99.90;;;;;;5052966;28;20561;-77
2023/04/25 00:26:54;;;;;;;1999.90;999.90;;;11.30;99.90;;;;;;5034795;28;20067;-77
2023/04/25 00:29:20;;;;;;;1999.90;999.90;;;11.30;99.90;;;;;;5052689;28;20025;-70
2023/04/25 00:31:45;;;;;;;1999.90;999.90;;;11.30;99.90;;;;;;5052913;28;20037;-77
2023/04/25 00:34:11;;;;;;;1999.90;999.90;;;11.30;99.90;;;;;;5034643;28;20100;-70
2023/04/25 00:36:37;;;;;;;1999.90;999.90;;;11.40;99.90;;;;;;5035005;28;20017;-77
2023/04/25 00:39:04;;;;;;;1999.90;999.90;;;11.40;99.90;;;;;;5051384;28;20021;-77
2023/04/25 00:41:30;;;;;;;1999.90;999.90;;;11.40;99.90;;;;;;5052604;28;20025;-77
2023/04/25 00:43:56;;;;;;;1999.90;999.90;;;11.40;99.90;;;;;;5052613;28;20037;-70
2023/04/25 00:46:22;;;;;;;1999.90;999.90;;;11.40;99.90;;;;;;5051861;28;20028;-77
2023/04/25 00:48:48;;;;;;;1999.90;999.90;;;11.40;99.90;;;;;;5052395;28;20029;-77
2023/04/25 00:51:20;;;;;;;1999.90;999.90;;;11.40;99.90;;;;;;5052396;28;20060;-77
2023/04/25 00:53:47;;;;;;;1999.90;999.90;;;11.50;99.90;;;;;;5035177;28;20382;-77
2023/04/25 00:56:13;;;;;;;1999.90;999.90;;;11.50;99.90;;;;;;5052417;28;20442;-70
2023/04/25 00:58:41;;;;;;;1999.90;999.90;;;11.50;99.90;;;;;;5052552;28;20025;-77
2023/04/25 01:01:07;;;;;;;1999.90;999.90;;;11.50;99.90;;;;;;5033843;28;20507;-77
2023/04/25 01:03:40;;;;;;;1999.90;999.90;;;11.40;99.90;;;;;;5055749;28;20033;-77
2023/04/25 01:06:08;;;;;;;1999.90;999.90;;;11.50;99.90;;;;;;5056056;28;20553;-71
2023/04/25 01:08:34;;;;;;;1999.90;999.90;;;11.50;99.90;;;;;;5056234;28;20488;-70
2023/04/25 01:11:00;;;;;;;1999.90;999.90;;;11.50;99.90;;;;;;5038047;28;20040;-70
2023/04/25 01:13:25;;;;;;;1999.90;999.90;;;11.50;99.90;;;;;;5056112;28;20037;-77
2023/04/25 01:15:51;;;;;;;1999.90;999.90;;;11.40;99.90;;;;;;5056038;28;20106;-70
2023/04/25 01:18:20;;;;;;;1999.90;999.90;;;11.40;99.90;;;;;;5055397;28;20029;-77
2023/04/25 01:20:46;;;;;;;1999.90;999.90;;;11.40;99.90;;;;;;5055907;28;20575;-77
2023/04/25 01:23:13;;;;;;;1999.90;999.90;;;11.40;99.90;;;;;;5037787;28;20063;-70
2023/04/25 01:25:40;;;;;;;1999.90;999.90;;;11.30;99.90;;;;;;5055598;28;20021;-77
2023/04/25 01:28:06;;;;;;;1999.90;999.90;;;11.20;99.90;;;;;;5052049;28;20109;-77
2023/04/25 01:30:31;;;;;;;1999.90;999.90;;;11.10;99.90;;;;;;5035795;28;20057;-77
2023/04/25 01:32:58;;;;;;;1999.90;999.90;;;11.10;99.90;;;;;;5035629;28;20029;-77
2023/04/25 01:35:25;;;;;;;1999.90;999.90;;;11.00;99.90;;;;;;5035643;28;20551;-71
2023/04/25 01:37:51;;;;;;;1999.90;999.90;;;11.00;99.90;;;;;;5035566;28;20037;-77
2023/04/25 01:40:20;;;;;;;1999.90;999.90;;;11.00;99.90;;;;;;5035447;28;20546;-70
2023/04/25 01:42:46;;;;;;;1999.90;999.90;;;11.00;99.90;;;;;;5035670;28;20030;-70
2023/04/25 01:45:12;;;;;;;1999.90;999.90;;;10.90;99.90;;;;;;5035338;28;20082;-70
2023/04/25 01:47:43;;;;;;;1999.90;999.90;;;10.90;99.90;;;;;;5035014;28;20025;-77
2023/04/25 01:50:09;;;;;;;1999.90;999.90;;;10.80;99.90;;;;;;5035275;28;20042;-77
2023/04/25 01:52:35;;;;;;;1999.90;999.90;;;10.90;99.90;;;;;;5035460;28;20033;-77
2023/04/25 01:55:04;;;;;;;1999.90;999.90;;;11.00;99.90;;;;;;5035371;28;20038;-77
2023/04/25 01:57:30;;;;;;;1999.90;999.90;;;10.90;99.90;;;;;;5035115;28;20028;-77
2023/04/25 02:00:00;;;;;;;1999.90;999.90;;;11.00;99.90;;;;;;5035575;28;20025;-77
2023/04/25 02:02:28;;;;;;;1999.90;999.90;;;11.00;99.90;;;;;;5050513;28;20025;-70
2023/04/25 02:04:54;;;;;;;1999.90;999.90;;;11.10;99.90;;;;;;5036959;28;20021;-77
2023/04/25 02:07:20;;;;;;;1999.90;999.90;;;11.10;99.90;;;;;;5054777;28;20514;-70
2023/04/25 02:09:46;;;;;;;1999.90;999.90;;;11.10;99.90;;;;;;5054805;28;20037;-77
2023/04/25 02:12:11;;;;;;;1999.90;999.90;;;11.10;99.90;;;;;;5055048;28;20035;-77
2023/04/25 02:14:37;;;;;;;1999.90;999.90;;;11.10;99.90;;;;;;5054570;28;20083;-77
2023/04/25 02:17:03;;;;;;;1999.90;999.90;;;11.10;99.90;;;;;;5036710;28;20025;-77
2023/04/25 02:19:28;;;;;;;1999.90;999.90;;;11.20;99.90;;;;;;5036877;28;20033;-77
2023/04/25 02:21:54;;;;;;;1999.90;999.90;;;11.10;99.90;;;;;;5054844;28;20049;-70
2023/04/25 02:24:20;;;;;;;1999.90;999.90;;;11.10;99.90;;;;;;5054751;28;20083;-70
2023/04/25 02:26:46;;;;;;;1999.90;999.90;;;11.00;99.90;;;;;;5054458;28;20021;-77
2023/04/25 02:29:12;;;;;;;1999.90;999.90;;;11.10;99.90;;;;;;5054548;28;20021;-70
2023/04/25 02:31:38;;;;;;;1999.90;999.90;;;11.10;99.90;;;;;;5054372;28;20029;-77
2023/04/25 02:34:04;;;;;;;1999.90;999.90;;;11.10;99.90;;;;;;5054357;28;20391;-77
2023/04/25 02:36:32;;;;;;;1999.90;999.90;;;11.10;99.90;;;;;;5054552;28;20021;-77
2023/04/25 02:38:57;;;;;;;1999.90;999.90;;;11.20;99.90;;;;;;5054551;28;20060;-77
2023/04/25 02:41:23;;;;;;;1999.90;999.90;;;11.20;99.90;;;;;;5054427;28;20044;-77
2023/04/25 02:43:48;;;;;;;1999.90;999.90;;;11.20;99.90;;;;;;5053209;28;20029;-77
2023/04/25 02:46:14;;;;;;;1999.90;999.90;;;11.20;99.90;;;;;;5035407;28;20025;-77
2023/04/25 02:48:40;;;;;;;1999.90;999.90;;;11.20;99.90;;;;;;5054405;28;20025;-77
2023/04/25 02:51:05;;;;;;;1999.90;999.90;;;11.20;99.90;;;;;;5054315;28;20049;-77
2023/04/25 02:53:31;;;;;;;1999.90;999.90;;;11.10;99.90;;;;;;5053842;28;20094;-77
2023/04/25 02:55:58;;;;;;;1999.90;999.90;;;11.10;99.90;;;;;;5054041;28;20025;-77
2023/04/25 02:58:23;;;;;;;1999.90;999.90;;;11.10;99.90;;;;;;5053655;28;20025;-77
2023/04/25 03:00:49;;;;;;;1999.90;999.90;;;11.10;99.90;;;;;;5054018;28;20096;-77
2023/04/25 03:03:17;;;;;;;1999.90;999.90;;;11.10;99.90;;;;;;5036195;28;20025;-77
2023/04/25 03:05:43;;;;;;;1999.90;999.90;;;11.10;99.90;;;;;;5053874;28;20466;-77
2023/04/25 03:08:09;;;;;;;1999.90;999.90;;;11.20;99.90;;;;;;5054125;28;20025;-70
2023/04/25 03:10:34;;;;;;;1999.90;999.90;;;11.20;99.90;;;;;;5053953;28;20472;-77
2023/04/25 03:13:00;;;;;;;1999.90;999.90;;;11.20;99.90;;;;;;5053640;28;20044;-70
2023/04/25 03:15:26;;;;;;;1999.90;999.90;;;11.20;99.90;;;;;;5053929;28;20073;-77
2023/04/25 03:17:52;;;;;;;1999.90;999.90;;;11.20;99.90;;;;;;5053574;28;20032;-77
2023/04/25 03:20:20;;;;;;;1999.90;999.90;;;11.20;99.90;;;;;;5053817;28;20104;-70
2023/04/25 03:22:46;;;;;;;1999.90;999.90;;;11.20;99.90;;;;;;5035525;28;20159;-71
2023/04/25 03:25:11;;;;;;;1999.90;999.90;;;11.10;99.90;;;;;;5052781;28;20519;-77
2023/04/25 03:27:37;;;;;;;1999.90;999.90;;;11.10;99.90;;;;;;5053618;28;20021;-77
2023/04/25 03:30:03;;;;;;;1999.90;999.90;;;10.90;99.90;;;;;;5073099;28;20035;-77
2023/04/25 03:32:29;;;;;;;1999.90;999.90;;;10.90;99.90;;;;;;5073604;28;20090;-77
2023/04/25 03:34:54;;;;;;;1999.90;999.90;;;10.80;99.90;;;;;;5073453;28;20032;-77
2023/04/25 03:37:20;;;;;;;1999.90;999.90;;;10.80;99.90;;;;;;5073137;28;20116;-77
2023/04/25 03:39:46;;;;;;;1999.90;999.90;;;10.80;99.90;;;;;;5073370;28;20028;-72
2023/04/25 03:42:11;;;;;;;1999.90;999.90;;;10.70;99.90;;;;;;5073495;28;20032;-77
2023/04/25 03:44:37;;;;;;;1999.90;999.90;;;10.70;99.90;;;;;;5073006;28;20081;-76
2023/04/25 03:47:02;;;;;;;1999.90;999.90;;;10.70;99.90;;;;;;5034523;28;20055;-77
2023/04/25 03:49:28;;;;;;;1999.90;999.90;;;10.60;99.90;;;;;;5035306;28;20525;-77
2023/04/25 03:51:54;;;;;;;1999.90;999.90;;;10.60;99.90;;;;;;5052843;28;20060;-77
2023/04/25 03:54:20;;;;;;;1999.90;999.90;;;10.60;99.90;;;;;;5053241;28;20067;-70
2023/04/25 03:56:45;;;;;;;1999.90;999.90;;;10.50;99.90;;;;;;5053109;28;20107;-77
2023/04/25 03:59:11;;;;;;;1999.90;999.90;;;10.50;99.90;;;;;;5053044;28;20100;-70
2023/04/25 04:01:36;;;;;;;1999.90;999.90;;;10.40;99.90;;;;;;5035301;28;20071;-70
2023/04/25 04:04:02;;;;;;;1999.90;999.90;;;10.50;99.90;;;;;;5052970;28;20479;-77
2023/04/25 04:06:28;;;;;;;1999.90;999.90;;;10.40;99.90;;;;;;5052741;28;20167;-77
2023/04/25 04:08:55;;;;;;;1999.90;999.90;;;10.40;99.90;;;;;;5052769;28;20040;-77
2023/04/25 04:11:20;;;;;;;1999.90;999.90;;;10.40;99.90;;;;;;5053264;28;20029;-69
2023/04/25 04:13:46;;;;;;;1999.90;999.90;;;10.30;99.90;;;;;;5052869;28;20033;-76
2023/04/25 04:16:11;;;;;;;1999.90;999.90;;;10.30;99.90;;;;;;5052951;28;20111;-76
2023/04/25 04:18:37;;;;;;;1999.90;999.90;;;10.30;99.90;;;;;;5033963;28;20056;-77
2023/04/25 04:21:03;;;;;;;1999.90;999.90;;;10.30;99.90;;;;;;5052826;28;20071;-77
2023/04/25 04:23:28;;;;;;;1999.90;999.90;;;10.30;99.90;;;;;;5052674;28;20036;-76
2023/04/25 04:25:56;;;;;;;1999.90;999.90;;;10.30;99.90;;;;;;5052590;28;20096;-70
2023/04/25 04:28:21;;;;;;;1999.90;999.90;;;10.20;99.90;;;;;;5058445;28;20024;-77
2023/04/25 04:30:47;;;;;;;1999.90;999.90;;;10.20;99.90;;;;;;5071581;28;20768;-76
2023/04/25 04:33:14;;;;;;;1999.90;999.90;;;10.20;99.90;;;;;;5052285;28;20036;-77
2023/04/25 04:35:41;;;;;;;1999.90;999.90;;;10.20;99.90;;;;;;5052577;28;20017;-77
2023/04/25 04:38:07;;;;;;;1999.90;999.90;;;10.20;99.90;;;;;;5056505;28;20037;-77
2023/04/25 04:40:32;;;;;;;1999.90;999.90;;;10.10;99.90;;;;;;5056300;28;20096;-70
2023/04/25 04:42:58;;;;;;;1999.90;999.90;;;10.10;99.90;;;;;;5057044;28;20029;-77
2023/04/25 04:45:24;;;;;;;1999.90;999.90;;;10.10;99.90;;;;;;5056749;28;20016;-77
2023/04/25 04:47:50;;;;;;;1999.90;999.90;;;10.10;99.90;;;;;;5055475;28;20025;-77
2023/04/25 04:50:16;;;;;;;1999.90;999.90;;;10.10;99.90;;;;;;5056051;28;20021;-71
2023/04/25 04:52:42;;;;;;;1999.90;999.90;;;10.00;99.90;;;;;;5056230;28;20118;-70
2023/04/25 04:55:08;;;;;;;1999.90;999.90;;;10.10;99.90;;;;;;5054173;28;20064;-70
2023/04/25 04:57:34;;;;;;;1999.90;999.90;;;10.10;99.90;;;;;;5055488;28;20517;-76
2023/04/25 05:00:00;;;;;;;1999.90;999.90;;;10.10;99.90;;;;;;5059350;28;20372;-76
2023/04/25 05:02:26;;;;;;;1999.90;999.90;;;10.10;99.90;;;;;;5057716;28;20021;-70
2023/04/25 05:04:52;;;;;;;1999.90;999.90;;;10.10;99.90;;;;;;5055681;28;20486;-70
2023/04/25 05:07:18;;;;;;;1999.90;999.90;;;10.10;99.90;;;;;;5056031;28;20033;-70
2023/04/25 05:09:44;;;;;;;1999.90;999.90;;;10.10;99.90;;;;;;5055607;28;20033;-76
2023/04/25 05:12:10;;;;;;;1999.90;999.90;;;10.10;99.90;;;;;;5055736;28;20048;-76
2023/04/25 05:14:35;;;;;;;1999.90;999.90;;;10.00;99.90;;;;;;5055556;28;20095;-70
2023/04/25 05:17:03;;;;;;;1999.90;999.90;;;10.00;99.90;;;;;;5055820;28;20071;-70
2023/04/25 05:19:29;;;;;;;1999.90;999.90;;;10.00;99.90;;;;;;5055568;28;20024;-70
2023/04/25 05:21:54;;;;;;;1999.90;999.90;;;10.00;99.90;;;;;;5055225;28;20025;-76
2023/04/25 05:24:20;;;;;;;1999.90;999.90;;;10.10;99.90;;;;;;5054517;28;20053;-70
2023/04/25 05:26:46;;;;;;;1999.90;999.90;;;10.10;99.90;;;;;;5074682;28;20082;-76
2023/04/25 05:29:11;;;;;;;1999.90;999.90;;;10.10;99.90;;;;;;5044514;28;20048;-70
2023/04/25 05:31:38;;;;;;;1999.90;999.90;;;10.00;99.90;;;;;;5055225;28;20044;-71
2023/04/25 05:34:03;;;;;;;1999.90;999.90;;;10.10;99.90;;;;;;5054976;28;20036;-70
2023/04/25 05:36:30;;;;;;;1999.90;999.90;;;10.10;99.90;;;;;;5051677;28;20024;-75
2023/04/25 05:38:55;;;;;;;1999.90;999.90;;;10.10;99.90;;;;;;5049898;28;20028;-77
2023/04/25 05:41:21;;;;;;;1999.90;999.90;;;10.20;99.90;;;;;;5054438;28;20033;-76
2023/04/25 05:43:49;;;;;;;1999.90;999.90;;;10.10;99.90;;;;;;5051786;28;20036;-77
2023/04/25 05:46:16;;;;;;;1999.90;999.90;;;10.20;99.90;;;;;;5053490;28;20025;-70
2023/04/25 05:48:43;;;;;;;1999.90;999.90;;;10.20;99.90;;;;;;5065768;28;20033;-77
2023/04/25 05:51:09;;;;;;;1999.90;999.90;;;10.20;99.90;;;;;;5074926;28;20053;-78
2023/04/25 05:53:35;;;;;;;1999.90;999.90;;;10.30;99.90;;;;;;5062781;28;20033;-76
2023/04/25 05:56:01;;;;;;;1999.90;999.90;;;10.30;99.90;;;;;;5036493;28;20032;-70
2023/04/25 05:58:26;;;;;;;1999.90;999.90;;;10.30;99.90;;;;;;5054317;28;20044;-76
2023/04/25 06:00:52;;;;;;;1999.90;999.90;;;10.40;99.90;;;;;;5054093;28;20484;-71
2023/04/25 06:03:17;;;;;;;1999.90;999.90;;;10.40;99.90;;;;;;5036668;28;20032;-77
2023/04/25 06:05:44;;;;;;;1999.90;999.90;;;10.50;99.90;;;;;;5050765;28;20012;-71
2023/04/25 06:08:10;;;;;;;1999.90;999.90;;;10.60;99.90;;;;;;5049544;28;20029;-76
2023/04/25 06:10:38;;;;;;;1999.90;999.90;;;10.60;99.90;;;;;;5052105;28;20040;-70
2023/04/25 06:13:05;;;;;;;1999.90;999.90;;;10.70;99.90;;;;;;5050935;28;20451;-71
2023/04/25 06:15:32;;;;;;;1999.90;999.90;;;10.90;99.90;;;;;;5050889;28;20031;-77
2023/04/25 06:17:58;;;;;;;1999.90;999.90;;;10.80;99.90;;;;;;5047568;28;20511;-76
2023/04/25 06:20:24;;;;;;;1999.90;999.90;;;10.80;99.90;;;;;;5052526;28;20052;-76
2023/04/25 06:22:51;;;;;;;1999.90;999.90;;;10.80;99.90;;;;;;5050853;28;20160;-70
2023/04/25 06:25:17;;;;;;;1999.90;999.90;;;10.70;99.90;;;;;;5051956;28;20021;-70
2023/04/25 06:27:43;;;;;;;1999.90;999.90;;;10.80;99.90;;;;;;5051446;28;20110;-76
2023/04/25 06:30:09;;;;;;;1999.90;999.90;;;10.80;99.90;;;;;;5064000;28;20376;-74
2023/04/25 06:32:35;;;;;;;1999.90;999.90;;;10.80;99.90;;;;;;5042105;28;20023;-70
2023/04/25 06:35:00;;;;;;;1999.90;999.90;;;10.80;99.90;;;;;;5043275;28;20022;-70
2023/04/25 06:37:26;;;;;;;1999.90;999.90;;;10.90;99.90;;;;;;5047148;28;20507;-71
2023/04/25 06:39:52;;;;;;;1999.90;999.90;;;11.10;99.90;;;;;;5050884;28;20108;-76
2023/04/25 06:42:18;;;;;;;1999.90;999.90;;;11.20;99.90;;;;;;5051445;28;20044;-71
2023/04/25 06:44:43;;;;;;;1999.90;999.90;;;11.30;99.90;;;;;;5050731;28;20031;-70
2023/04/25 06:47:09;;;;;;;1999.90;999.90;;;11.30;99.90;;;;;;5051394;28;20056;-76
2023/04/25 06:49:34;;;;;;;1999.90;999.90;;;11.20;99.90;;;;;;5043285;28;20037;-70
2023/04/25 06:52:00;;;;;;;1999.90;999.90;;;11.30;99.90;;;;;;5050747;28;20056;-76
2023/04/25 06:54:28;;;;;;;1999.90;999.90;;;11.30;99.90;;;;;;5050413;28;20021;-70
2023/04/25 06:56:54;;;;;;;1999.90;999.90;;;11.30;99.90;;;;;;5050480;28;20391;-76
2023/04/25 06:59:20;;;;;;;1999.90;999.90;;;11.60;99.90;;;;;;5064037;28;20036;-76
2023/04/25 07:01:45;;;;;;;1999.90;999.90;;;11.60;99.90;;;;;;5048564;28;20028;-70
2023/04/25 07:04:11;;;;;;;1999.90;999.90;;;11.60;99.90;;;;;;5050542;28;20032;-71
2023/04/25 07:06:42;;;;;;;1999.90;999.90;;;11.60;99.90;;;;;;5045295;28;20400;-76
2023/04/25 07:09:10;;;;;;;1999.90;999.90;;;11.60;99.90;;;;;;5047700;28;20111;-76
2023/04/25 07:11:36;;;;;;;1999.90;999.90;;;11.60;99.90;;;;;;5047359;28;20028;-71
2023/04/25 07:14:02;;;;;;;1999.90;999.90;;;11.60;99.90;;;;;;5049862;28;20534;-72
2023/04/25 07:16:28;;;;;;;1999.90;999.90;;;11.60;99.90;;;;;;5050717;28;20029;-71
2023/04/25 07:18:54;;;;;;;1999.90;999.90;;;11.50;99.90;;;;;;5045503;28;20924;-71
2023/04/25 07:21:19;;;;;;;1999.90;999.90;;;11.80;99.90;;;;;;5049874;28;20531;-76
2023/04/25 07:23:45;;;;;;;1999.90;999.90;;;11.80;99.90;;;;;;5052049;28;20103;-75
2023/04/25 07:26:10;;;;;;;1999.90;999.90;;;11.80;99.90;;;;;;5049781;28;20036;-76
2023/04/25 07:28:36;;;;;;;1999.90;999.90;;;11.80;99.90;;;;;;5048865;28;20085;-71
2023/04/25 07:31:02;;;;;;;1999.90;999.90;;;11.90;99.90;;;;;;5050678;28;20107;-70
2023/04/25 07:33:28;;;;;;;1999.90;999.90;;;12.20;99.90;;;;;;5049120;28;20365;-77
2023/04/25 07:35:54;;;;;;;1999.90;999.90;;;12.30;99.90;;;;;;5051269;28;20143;-77
2023/04/25 07:38:20;;;;;;;1999.90;999.90;;;12.60;99.90;;;;;;5049640;28;20025;-72
2023/04/25 07:40:48;;;;;;;1999.90;999.90;;;13.00;99.90;;;;;;5050924;28;20032;-71
2023/04/25 07:43:16;;;;;;;1999.90;999.90;;;13.00;99.90;;;;;;5036216;28;20026;-72
2023/04/25 07:45:46;;;;;;;1999.90;999.90;;;13.30;99.90;;;;;;5048926;28;20527;-71
2023/04/25 07:48:16;;;;;;;1999.90;999.90;;;13.60;99.90;;;;;;5037735;28;20104;-78
2023/04/25 07:50:41;;;;;;;1999.90;999.90;;;13.90;99.90;;;;;;5042932;28;20071;-80
2023/04/25 07:53:07;;;;;;;1999.90;999.90;;;14.30;99.90;;;;;;5044827;28;20477;-72
2023/04/25 07:55:32;;;;;;;1999.90;999.90;;;14.70;99.90;;;;;;5043747;28;20036;-72
2023/04/25 07:57:58;;;;;;;1999.90;999.90;;;15.00;99.90;;;;;;5047103;28;20412;-79
2023/04/25 08:00:23;;;;;;;1999.90;999.90;;;15.20;99.90;;;;;;5045287;28;20033;-79
2023/04/25 08:02:50;;;;;;;1999.90;999.90;;;15.40;99.90;;;;;;5049322;28;20029;-80
2023/04/25 08:05:16;;;;;;;1999.90;999.90;;;15.20;99.90;;;;;;5050939;28;20029;-72
2023/04/25 08:07:43;;;;;;;1999.90;999.90;;;15.40;99.90;;;;;;5043518;28;20789;-78
2023/04/25 08:10:09;;;;;;;1999.90;999.90;;;15.80;99.90;;;;;;5034006;28;20041;-71
2023/04/25 08:12:34;;;;;;;1999.90;999.90;;;16.20;99.90;;;;;;5049181;28;20039;-79
2023/04/25 08:15:00;;;;;;;1999.90;999.90;;;17.10;99.90;;;;;;5043771;28;20104;-71
2023/04/25 08:17:26;;;;;;;1999.90;999.90;;;18.30;99.90;;;;;;5047125;28;20025;-78
2023/04/25 08:19:51;;;;;;;1999.90;999.90;;;18.50;99.90;;;;;;5049250;28;20106;-71
2023/04/25 08:22:17;;;;;;;1999.90;999.90;;;18.40;99.90;;;;;;5045393;28;20025;-71
2023/04/25 08:24:43;;;;;;;1999.90;999.90;;;18.40;99.90;;;;;;5047948;28;20065;-79
2023/04/25 08:27:08;;;;;;;1999.90;999.90;;;19.30;99.90;;;;;;5048083;28;20029;-71
2023/04/25 08:29:34;;;;;;;1999.90;999.90;;;20.50;99.90;;;;;;5049606;28;20083;-80
2023/04/25 08:32:00;;;;;;;1999.90;999.90;;;21.00;99.90;;;;;;5049255;28;20116;-71
2023/04/25 08:34:26;;;;;;;1999.90;999.90;;;19.90;99.90;;;;;;5052752;28;20111;-71
2023/04/25 08:36:52;;;;;;;1999.90;999.90;;;19.10;99.90;;;;;;5045475;28;20066;-71
2023/04/25 08:39:17;;;;;;;1999.90;999.90;;;18.40;99.90;;;;;;5048090;28;20288;-79
2023/04/25 08:41:44;;;;;;;1999.90;999.90;;;18.40;99.90;;;;;;5044957;28;20031;-80
2023/04/25 08:44:11;;;;;;;1999.90;999.90;;;18.10;99.90;;;;;;5043078;28;20032;-72
2023/04/25 08:46:41;;;;;;;1999.90;999.90;;;17.40;99.90;;;;;;5040407;28;20558;-71
2023/04/25 08:49:08;;;;;;;1999.90;999.90;;;16.80;99.90;;;;;;5044558;28;20040;-76
2023/04/25 08:51:40;;;;;;;1999.90;999.90;;;16.60;99.90;;;;;;5044704;28;20136;-78
2023/04/25 08:54:10;;;;;;;1999.90;999.90;;;16.80;99.90;;;;;;5064057;28;20033;-78
2023/04/25 08:56:37;;;;;;;1999.90;999.90;;;17.10;99.90;;;;;;5044097;28;20037;-72
2023/04/25 08:59:03;;;;;;;1999.90;999.90;;;18.10;99.90;;;;;;5050581;28;20097;-71
2023/04/25 09:01:29;;;;;;;1999.90;999.90;;;19.50;99.90;;;;;;5043234;28;20039;-72
2023/04/25 09:03:55;;;;;;;1999.90;999.90;;;20.90;99.90;;;;;;5062328;28;21316;-71
2023/04/25 09:06:22;;;;;;;1999.90;999.90;;;21.70;99.90;;;;;;5049415;28;20104;-71
2023/04/25 09:08:50;;;;;;;1999.90;999.90;;;20.70;99.90;;;;;;5055946;28;20067;-79
2023/04/25 09:11:15;;;;;;;1999.90;999.90;;;20.60;99.90;;;;;;5057444;28;20063;-71
2023/04/25 09:13:41;;;;;;;1999.90;999.90;;;20.20;99.90;;;;;;5047795;28;20033;-72
2023/04/25 09:16:06;;;;;;;1999.90;999.90;;;20.00;99.90;;;;;;5062724;28;20553;-79
2023/04/25 09:18:34;;;;;;;1999.90;999.90;;;20.10;99.90;;;;;;5049924;28;20067;-78
2023/04/25 09:21:07;;;;;;;1999.90;999.90;;;19.10;99.90;;;;;;5048945;28;20120;-71
2023/04/25 09:23:41;;;;;;;1999.90;999.90;;;18.80;99.90;;;;;;5055254;28;20078;-70
2023/04/25 09:26:09;;;;;;;1999.90;999.90;;;18.60;99.90;;;;;;5046449;28;20032;-71
2023/04/25 09:28:35;;;;;;;1999.90;999.90;;;18.20;99.90;;;;;;5053396;28;20048;-79
2023/04/25 09:31:00;;;;;;;1999.90;999.90;;;18.30;99.90;;;;;;5037120;28;20056;-71
2023/04/25 09:33:32;;;;;;;1999.90;999.90;;;18.00;99.90;;;;;;5047443;28;20025;-79
2023/04/25 09:36:05;;;;;;;1999.90;999.90;;;18.00;99.90;;;;;;5049510;28;20048;-72
2023/04/25 09:38:40;;;;;;;1999.90;999.90;;;17.60;99.90;;;;;;5066367;28;20542;-71
2023/04/25 09:41:05;;;;;;;1999.90;999.90;;;17.10;99.90;;;;;;5057045;28;20028;-79
2023/04/25 09:43:31;;;;;;;1999.90;999.90;;;16.90;99.90;;;;;;5054301;28;20066;-72
2023/04/25 09:46:00;;;;;;;1999.90;999.90;;;16.50;99.90;;;;;;5057173;28;20025;-77
2023/04/25 09:48:27;;;;;;;1999.90;999.90;;;16.20;99.90;;;;;;5054065;28;20029;-76
2023/04/25 09:51:08;;;;;;;1999.90;999.90;;;16.20;99.90;;;;;;5058745;28;20142;-69
2023/04/25 09:53:35;;;;;;;1999.90;999.90;;;16.30;99.90;;;;;;5050185;28;20396;-79
2023/04/25 09:56:05;;;;;;;1999.90;999.90;;;16.30;99.90;;;;;;5059718;28;20471;-70
2023/04/25 09:58:31;;;;;;;1999.90;999.90;;;16.30;99.90;;;;;;5051703;28;20626;-78
2023/04/25 10:01:02;;;;;;;1999.90;999.90;;;16.10;99.90;;;;;;5044535;28;20034;-77
2023/04/25 10:03:30;;;;;;;1999.90;999.90;;;16.00;99.90;;;;;;5052328;28;20054;-71
2023/04/25 10:05:59;;;;;;;1999.90;999.90;;;16.00;99.90;;;;;;5052134;28;20052;-70
2023/04/25 10:08:28;;;;;;;1999.90;999.90;;;16.30;99.90;;;;;;5052175;28;20115;-78
2023/04/25 10:10:55;;;;;;;1999.90;999.90;;;16.70;99.90;;;;;;5051979;28;20029;-78
2023/04/25 10:13:20;;;;;;;1999.90;999.90;;;17.30;99.90;;;;;;5050801;28;20029;-77
2023/04/25 10:15:47;;;;;;;1999.90;999.90;;;17.30;99.90;;;;;;5050545;28;20476;-72
2023/04/25 10:18:13;;;;;;;1999.90;999.90;;;17.10;99.90;;;;;;5052498;28;20032;-71
2023/04/25 10:20:39;;;;;;;1999.90;999.90;;;16.90;99.90;;;;;;5038409;28;20415;-77
2023/04/25 10:23:13;;;;;;;1999.90;999.90;;;17.30;99.90;;;;;;5068444;28;20021;-76
2023/04/25 10:25:40;;;;;;;1999.90;999.90;;;16.50;99.90;;;;;;5044629;28;20022;-76
2023/04/25 10:28:06;;;;;;;1999.90;999.90;;;16.70;99.90;;;;;;5046878;28;20029;-76
2023/04/25 10:30:31;;;;;;;1999.90;999.90;;;16.70;99.90;;;;;;5050838;28;20033;-70
2023/04/25 10:32:59;;;;;;;1999.90;999.90;;;16.50;99.90;;;;;;5055364;28;20029;-70
2023/04/25 10:35:27;;;;;;;1999.90;999.90;;;16.30;99.90;;;;;;5059091;28;20106;-76
2023/04/25 10:37:59;;;;;;;1999.90;999.90;;;16.30;99.90;;;;;;5049703;28;20425;-70
2023/04/25 10:40:26;;;;;;;1999.90;999.90;;;15.90;99.90;;;;;;5047212;28;20476;-69
2023/04/25 10:42:55;;;;;;;1999.90;999.90;;;15.90;99.90;;;;;;5049404;28;20041;-70
2023/04/25 10:45:22;;;;;;;1999.90;999.90;;;15.90;99.90;;;;;;5052316;28;20028;-70
2023/04/25 10:47:48;;;;;;;1999.90;999.90;;;15.90;99.90;;;;;;5051371;28;20510;-70
2023/04/25 10:50:16;;;;;;;1999.90;999.90;;;15.90;99.90;;;;;;5048728;28;20029;-70
2023/04/25 10:52:44;;;;;;;1999.90;999.90;;;15.80;99.90;;;;;;5049426;28;20032;-70
2023/04/25 10:55:10;;;;;;;1999.90;999.90;;;15.50;99.90;;;;;;5051318;28;20036;-70
2023/04/25 10:57:43;;;;;;;1999.90;999.90;;;15.90;99.90;;;;;;5051080;28;20377;-70
2023/04/25 11:00:18;;;;;;;1999.90;999.90;;;16.00;99.90;;;;;;5051072;28;20029;-75
2023/04/25 11:02:50;;;;;;;1999.90;999.90;;;16.00;99.90;;;;;;5058989;28;20063;-76
2023/04/25 11:05:38;;;;;;;1999.90;999.90;;;16.00;99.90;;;;;;5050850;28;20468;-76
2023/04/25 11:08:11;;;;;;;1999.90;999.90;;;16.10;99.90;;;;;;5041389;28;20037;-70
2023/04/25 11:10:36;;;;;;;1999.90;999.90;;;15.70;99.90;;;;;;5050253;28;20392;-69
2023/04/25 11:13:02;;;;;;;1999.90;999.90;;;15.60;99.90;;;;;;5043051;28;20036;-70
2023/04/25 11:15:28;;;;;;;1999.90;999.90;;;15.60;99.90;;;;;;5045065;28;20116;-74
2023/04/25 11:17:55;;;;;;;1999.90;999.90;;;15.60;99.90;;;;;;5047540;28;20427;-76
2023/04/25 11:20:21;;;;;;;1999.90;999.90;;;15.60;99.90;;;;;;5041860;28;20099;-70
2023/04/25 11:22:47;;;;;;;1999.90;999.90;;;15.90;99.90;;;;;;5049799;28;20017;-70
2023/04/25 11:25:15;;;;;;;1999.90;999.90;;;16.50;99.90;;;;;;5046901;28;20550;-76
2023/04/25 11:27:51;;;;;;;1999.90;999.90;;;16.70;99.90;;;;;;5047976;28;20048;-77
2023/04/25 11:30:17;;;;;;;1999.90;999.90;;;16.90;99.90;;;;;;5044812;28;20037;-77
2023/04/25 11:32:43;;;;;;;1999.90;999.90;;;17.30;99.90;;;;;;5036452;28;20152;-77
2023/04/25 11:35:10;;;;;;;1999.90;999.90;;;17.60;99.90;;;;;;5049691;28;20056;-69
2023/04/25 11:37:36;;;;;;;1999.90;999.90;;;17.40;99.90;;;;;;5048182;28;20035;-70
2023/04/25 11:40:06;;;;;;;1999.90;999.90;;;17.30;99.90;;;;;;5048456;28;20033;-71
2023/04/25 11:42:33;;;;;;;1999.90;999.90;;;17.20;99.90;;;;;;5049637;28;20077;-78
2023/04/25 11:44:59;;;;;;;1999.90;999.90;;;17.40;99.90;;;;;;5056760;28;20039;-70
2023/04/25 11:47:33;;;;;;;1999.90;999.90;;;17.60;99.90;;;;;;5048804;28;20139;-72
2023/04/25 11:50:07;;;;;;;1999.90;999.90;;;17.40;99.90;;;;;;5052721;28;20037;-71
2023/04/25 11:52:41;;;;;;;1999.90;999.90;;;16.80;99.90;;;;;;5050273;28;20128;-79
2023/04/25 11:55:08;;;;;;;1999.90;999.90;;;16.90;99.90;;;;;;5052165;28;20093;-78